sensor_id;sensor_type;location;lat;lon;timestamp;P1;durP1;ratioP1;P2;durP2;ratioP2
22107;SDS011;11220;48.812;9.128;2022-07-06T00:01:41;0.47;;;0.47;;
22107;SDS011;11220;48.812;9.128;2022-07-06T00:04:15;0.30;;;0.30;;
22107;SDS011;11220;48.812;9.128;2022-07-06T00:06:41;0.43;;;0.40;;
22107;SDS011;11220;48.812;9.128;2022-07-06T00:09:14;0.50;;;0.50;;
22107;SDS011;11220;48.812;9.128;2022-07-06T00:11:45;0.40;;;0.40;;
22107;SDS011;11220;48.812;9.128;2022-07-06T00:14:16;0.40;;;0.40;;
22107;SDS011;11220;48.812;9.128;2022-07-06T00:16:49;0.52;;;0.52;;
22107;SDS011;11220;48.812;9.128;2022-07-06T00:19:21;0.40;;;0.40;;
22107;SDS011;11220;48.812;9.128;2022-07-06T00:21:49;0.40;;;0.40;;
22107;SDS011;11220;48.812;9.128;2022-07-06T00:24:15;0.40;;;0.40;;
22107;SDS011;11220;48.812;9.128;2022-07-06T00:26:57;0.45;;;0.45;;
22107;SDS011;11220;48.812;9.128;2022-07-06T00:29:32;0.40;;;0.40;;
22107;SDS011;11220;48.812;9.128;2022-07-06T00:32:08;0.38;;;0.38;;
22107;SDS011;11220;48.812;9.128;2022-07-06T00:34:43;0.50;;;0.50;;
22107;SDS011;11220;48.812;9.128;2022-07-06T00:37:14;0.40;;;0.40;;
22107;SDS011;11220;48.812;9.128;2022-07-06T00:39:48;0.40;;;0.40;;
22107;SDS011;11220;48.812;9.128;2022-07-06T00:42:21;0.52;;;0.52;;
22107;SDS011;11220;48.812;9.128;2022-07-06T00:44:49;0.50;;;0.50;;
22107;SDS011;11220;48.812;9.128;2022-07-06T00:47:23;0.50;;;0.50;;
22107;SDS011;11220;48.812;9.128;2022-07-06T00:49:49;0.50;;;0.50;;
22107;SDS011;11220;48.812;9.128;2022-07-06T00:52:57;0.40;;;0.40;;
22107;SDS011;11220;48.812;9.128;2022-07-06T00:58:16;0.50;;;0.50;;
22107;SDS011;11220;48.812;9.128;2022-07-06T01:00:44;0.52;;;0.52;;
22107;SDS011;11220;48.812;9.128;2022-07-06T01:03:30;0.40;;;0.40;;
22107;SDS011;11220;48.812;9.128;2022-07-06T01:08:51;0.50;;;0.50;;
22107;SDS011;11220;48.812;9.128;2022-07-06T01:14:30;0.52;;;0.52;;
22107;SDS011;11220;48.812;9.128;2022-07-06T01:17:04;0.50;;;0.50;;
22107;SDS011;11220;48.812;9.128;2022-07-06T01:19:45;0.50;;;0.50;;
22107;SDS011;11220;48.812;9.128;2022-07-06T01:22:16;0.47;;;0.47;;
22107;SDS011;11220;48.812;9.128;2022-07-06T01:24:44;0.65;;;0.60;;
22107;SDS011;11220;48.812;9.128;2022-07-06T01:27:19;0.60;;;0.60;;
22107;SDS011;11220;48.812;9.128;2022-07-06T01:29:48;0.40;;;0.40;;
22107;SDS011;11220;48.812;9.128;2022-07-06T01:32:19;0.50;;;0.50;;
22107;SDS011;11220;48.812;9.128;2022-07-06T01:35:01;0.65;;;0.65;;
22107;SDS011;11220;48.812;9.128;2022-07-06T01:37:27;0.70;;;0.70;;
22107;SDS011;11220;48.812;9.128;2022-07-06T01:39:57;0.50;;;0.50;;
22107;SDS011;11220;48.812;9.128;2022-07-06T01:42:27;0.70;;;0.70;;
22107;SDS011;11220;48.812;9.128;2022-07-06T01:44:53;0.55;;;0.55;;
22107;SDS011;11220;48.812;9.128;2022-07-06T01:47:19;0.43;;;0.43;;
22107;SDS011;11220;48.812;9.128;2022-07-06T01:49:45;0.50;;;0.50;;
22107;SDS011;11220;48.812;9.128;2022-07-06T01:52:11;0.55;;;0.55;;
22107;SDS011;11220;48.812;9.128;2022-07-06T01:54:36;0.68;;;0.68;;
22107;SDS011;11220;48.812;9.128;2022-07-06T01:57:02;0.60;;;0.50;;
22107;SDS011;11220;48.812;9.128;2022-07-06T01:59:28;0.50;;;0.50;;
22107;SDS011;11220;48.812;9.128;2022-07-06T02:01:54;0.70;;;0.60;;
22107;SDS011;11220;48.812;9.128;2022-07-06T02:04:19;0.50;;;0.50;;
22107;SDS011;11220;48.812;9.128;2022-07-06T02:06:45;0.55;;;0.55;;
22107;SDS011;11220;48.812;9.128;2022-07-06T02:09:11;0.50;;;0.50;;
22107;SDS011;11220;48.812;9.128;2022-07-06T02:11:37;0.50;;;0.50;;
22107;SDS011;11220;48.812;9.128;2022-07-06T02:14:02;0.60;;;0.50;;
22107;SDS011;11220;48.812;9.128;2022-07-06T02:16:28;0.55;;;0.50;;
22107;SDS011;11220;48.812;9.128;2022-07-06T02:18:54;0.57;;;0.57;;
22107;SDS011;11220;48.812;9.128;2022-07-06T02:21:19;0.60;;;0.60;;
22107;SDS011;11220;48.812;9.128;2022-07-06T02:23:47;0.65;;;0.50;;
22107;SDS011;11220;48.812;9.128;2022-07-06T02:26:22;0.50;;;0.50;;
22107;SDS011;11220;48.812;9.128;2022-07-06T02:28:50;0.50;;;0.50;;
22107;SDS011;11220;48.812;9.128;2022-07-06T02:31:19;0.60;;;0.60;;
22107;SDS011;11220;48.812;9.128;2022-07-06T02:33:47;0.60;;;0.60;;
22107;SDS011;11220;48.812;9.128;2022-07-06T02:36:13;0.60;;;0.50;;
22107;SDS011;11220;48.812;9.128;2022-07-06T02:38:39;0.50;;;0.50;;
22107;SDS011;11220;48.812;9.128;2022-07-06T02:41:04;0.50;;;0.50;;
22107;SDS011;11220;48.812;9.128;2022-07-06T02:43:33;0.80;;;0.80;;
22107;SDS011;11220;48.812;9.128;2022-07-06T02:46:04;0.52;;;0.43;;
22107;SDS011;11220;48.812;9.128;2022-07-06T02:48:30;0.50;;;0.50;;
22107;SDS011;11220;48.812;9.128;2022-07-06T02:50:56;0.60;;;0.60;;
22107;SDS011;11220;48.812;9.128;2022-07-06T02:53:26;0.60;;;0.60;;
22107;SDS011;11220;48.812;9.128;2022-07-06T02:56:04;0.57;;;0.57;;
22107;SDS011;11220;48.812;9.128;2022-07-06T02:58:30;0.70;;;0.70;;
22107;SDS011;11220;48.812;9.128;2022-07-06T03:00:58;0.60;;;0.60;;
22107;SDS011;11220;48.812;9.128;2022-07-06T03:03:27;0.50;;;0.50;;
22107;SDS011;11220;48.812;9.128;2022-07-06T03:05:55;0.43;;;0.43;;
22107;SDS011;11220;48.812;9.128;2022-07-06T03:08:20;0.55;;;0.55;;
22107;SDS011;11220;48.812;9.128;2022-07-06T03:10:46;0.60;;;0.60;;
22107;SDS011;11220;48.812;9.128;2022-07-06T03:13:12;0.60;;;0.60;;
22107;SDS011;11220;48.812;9.128;2022-07-06T03:15:39;0.50;;;0.50;;
22107;SDS011;11220;48.812;9.128;2022-07-06T03:18:08;0.82;;;0.55;;
22107;SDS011;11220;48.812;9.128;2022-07-06T03:20:37;0.55;;;0.55;;
22107;SDS011;11220;48.812;9.128;2022-07-06T03:23:08;0.52;;;0.50;;
22107;SDS011;11220;48.812;9.128;2022-07-06T03:25:34;0.50;;;0.50;;
22107;SDS011;11220;48.812;9.128;2022-07-06T03:27:59;0.60;;;0.60;;
22107;SDS011;11220;48.812;9.128;2022-07-06T03:30:27;0.70;;;0.60;;
22107;SDS011;11220;48.812;9.128;2022-07-06T03:32:53;0.60;;;0.60;;
22107;SDS011;11220;48.812;9.128;2022-07-06T03:35:22;0.50;;;0.40;;
22107;SDS011;11220;48.812;9.128;2022-07-06T03:37:47;0.55;;;0.50;;
22107;SDS011;11220;48.812;9.128;2022-07-06T03:40:13;0.50;;;0.50;;
22107;SDS011;11220;48.812;9.128;2022-07-06T03:42:39;0.60;;;0.60;;
22107;SDS011;11220;48.812;9.128;2022-07-06T03:45:05;0.60;;;0.60;;
22107;SDS011;11220;48.812;9.128;2022-07-06T03:47:32;0.57;;;0.57;;
22107;SDS011;11220;48.812;9.128;2022-07-06T03:49:57;0.52;;;0.52;;
22107;SDS011;11220;48.812;9.128;2022-07-06T03:52:23;0.85;;;0.70;;
22107;SDS011;11220;48.812;9.128;2022-07-06T03:54:49;0.60;;;0.60;;
22107;SDS011;11220;48.812;9.128;2022-07-06T03:57:14;0.50;;;0.50;;
22107;SDS011;11220;48.812;9.128;2022-07-06T03:59:40;0.50;;;0.50;;
22107;SDS011;11220;48.812;9.128;2022-07-06T04:02:06;0.70;;;0.70;;
22107;SDS011;11220;48.812;9.128;2022-07-06T04:04:33;0.70;;;0.70;;
22107;SDS011;11220;48.812;9.128;2022-07-06T04:06:59;0.70;;;0.70;;
22107;SDS011;11220;48.812;9.128;2022-07-06T04:09:27;0.70;;;0.70;;
22107;SDS011;11220;48.812;9.128;2022-07-06T04:11:53;0.60;;;0.60;;
22107;SDS011;11220;48.812;9.128;2022-07-06T04:14:18;0.55;;;0.55;;
22107;SDS011;11220;48.812;9.128;2022-07-06T04:16:44;0.60;;;0.60;;
22107;SDS011;11220;48.812;9.128;2022-07-06T04:19:09;0.90;;;0.80;;
22107;SDS011;11220;48.812;9.128;2022-07-06T04:21:35;0.63;;;0.63;;
22107;SDS011;11220;48.812;9.128;2022-07-06T04:24:00;1.08;;;0.50;;
22107;SDS011;11220;48.812;9.128;2022-07-06T04:26:26;0.60;;;0.60;;
22107;SDS011;11220;48.812;9.128;2022-07-06T04:28:52;0.73;;;0.70;;
22107;SDS011;11220;48.812;9.128;2022-07-06T04:31:17;0.85;;;0.77;;
22107;SDS011;11220;48.812;9.128;2022-07-06T04:33:43;0.60;;;0.60;;
22107;SDS011;11220;48.812;9.128;2022-07-06T04:36:09;0.73;;;0.73;;
22107;SDS011;11220;48.812;9.128;2022-07-06T04:38:35;0.60;;;0.60;;
22107;SDS011;11220;48.812;9.128;2022-07-06T04:41:01;0.60;;;0.60;;
22107;SDS011;11220;48.812;9.128;2022-07-06T04:43:26;0.55;;;0.55;;
22107;SDS011;11220;48.812;9.128;2022-07-06T04:45:52;0.80;;;0.80;;
22107;SDS011;11220;48.812;9.128;2022-07-06T04:48:18;0.52;;;0.52;;
22107;SDS011;11220;48.812;9.128;2022-07-06T04:50:43;0.70;;;0.70;;
22107;SDS011;11220;48.812;9.128;2022-07-06T04:53:17;0.75;;;0.60;;
22107;SDS011;11220;48.812;9.128;2022-07-06T04:56:05;0.63;;;0.55;;
22107;SDS011;11220;48.812;9.128;2022-07-06T04:58:41;0.55;;;0.55;;
22107;SDS011;11220;48.812;9.128;2022-07-06T05:01:12;0.50;;;0.50;;
22107;SDS011;11220;48.812;9.128;2022-07-06T05:03:43;0.70;;;0.70;;
22107;SDS011;11220;48.812;9.128;2022-07-06T05:06:12;0.80;;;0.80;;
22107;SDS011;11220;48.812;9.128;2022-07-06T05:08:41;0.70;;;0.70;;
22107;SDS011;11220;48.812;9.128;2022-07-06T05:11:10;0.60;;;0.60;;
22107;SDS011;11220;48.812;9.128;2022-07-06T05:13:41;0.70;;;0.60;;
22107;SDS011;11220;48.812;9.128;2022-07-06T05:16:07;0.60;;;0.60;;
22107;SDS011;11220;48.812;9.128;2022-07-06T05:18:39;0.60;;;0.60;;
22107;SDS011;11220;48.812;9.128;2022-07-06T05:21:05;0.77;;;0.77;;
22107;SDS011;11220;48.812;9.128;2022-07-06T05:23:31;0.57;;;0.57;;
22107;SDS011;11220;48.812;9.128;2022-07-06T05:25:56;0.65;;;0.63;;
22107;SDS011;11220;48.812;9.128;2022-07-06T05:28:22;0.60;;;0.60;;
22107;SDS011;11220;48.812;9.128;2022-07-06T05:30:51;0.70;;;0.70;;
22107;SDS011;11220;48.812;9.128;2022-07-06T05:33:17;0.80;;;0.80;;
22107;SDS011;11220;48.812;9.128;2022-07-06T05:35:42;0.65;;;0.65;;
22107;SDS011;11220;48.812;9.128;2022-07-06T05:38:14;0.57;;;0.57;;
22107;SDS011;11220;48.812;9.128;2022-07-06T05:40:42;0.70;;;0.70;;
22107;SDS011;11220;48.812;9.128;2022-07-06T05:43:08;0.70;;;0.70;;
22107;SDS011;11220;48.812;9.128;2022-07-06T05:45:33;0.70;;;0.70;;
22107;SDS011;11220;48.812;9.128;2022-07-06T05:47:59;0.80;;;0.80;;
22107;SDS011;11220;48.812;9.128;2022-07-06T05:50:43;0.70;;;0.70;;
22107;SDS011;11220;48.812;9.128;2022-07-06T05:53:09;0.65;;;0.65;;
22107;SDS011;11220;48.812;9.128;2022-07-06T05:55:34;0.90;;;0.90;;
22107;SDS011;11220;48.812;9.128;2022-07-06T05:58:00;0.68;;;0.68;;
22107;SDS011;11220;48.812;9.128;2022-07-06T06:00:26;0.80;;;0.80;;
22107;SDS011;11220;48.812;9.128;2022-07-06T06:02:52;0.80;;;0.80;;
22107;SDS011;11220;48.812;9.128;2022-07-06T06:05:18;0.70;;;0.70;;
22107;SDS011;11220;48.812;9.128;2022-07-06T06:07:45;0.80;;;0.80;;
22107;SDS011;11220;48.812;9.128;2022-07-06T06:10:16;0.85;;;0.80;;
22107;SDS011;11220;48.812;9.128;2022-07-06T06:12:43;0.90;;;0.90;;
22107;SDS011;11220;48.812;9.128;2022-07-06T06:18:30;0.90;;;0.85;;
22107;SDS011;11220;48.812;9.128;2022-07-06T06:20:56;0.80;;;0.80;;
22107;SDS011;11220;48.812;9.128;2022-07-06T06:23:21;0.77;;;0.77;;
22107;SDS011;11220;48.812;9.128;2022-07-06T06:25:47;0.75;;;0.75;;
22107;SDS011;11220;48.812;9.128;2022-07-06T06:28:13;1.60;;;0.85;;
22107;SDS011;11220;48.812;9.128;2022-07-06T06:30:38;0.98;;;0.75;;
22107;SDS011;11220;48.812;9.128;2022-07-06T06:33:05;0.70;;;0.70;;
22107;SDS011;11220;48.812;9.128;2022-07-06T06:35:38;0.70;;;0.70;;
22107;SDS011;11220;48.812;9.128;2022-07-06T06:38:07;1.00;;;0.95;;
22107;SDS011;11220;48.812;9.128;2022-07-06T06:40:32;0.95;;;0.82;;
22107;SDS011;11220;48.812;9.128;2022-07-06T06:42:58;0.93;;;0.80;;
22107;SDS011;11220;48.812;9.128;2022-07-06T06:45:27;0.80;;;0.80;;
22107;SDS011;11220;48.812;9.128;2022-07-06T06:47:53;0.80;;;0.80;;
22107;SDS011;11220;48.812;9.128;2022-07-06T06:50:29;0.70;;;0.70;;
22107;SDS011;11220;48.812;9.128;2022-07-06T06:53:07;0.80;;;0.80;;
22107;SDS011;11220;48.812;9.128;2022-07-06T06:55:44;0.70;;;0.70;;
22107;SDS011;11220;48.812;9.128;2022-07-06T06:58:34;0.70;;;0.70;;
22107;SDS011;11220;48.812;9.128;2022-07-06T07:01:24;0.88;;;0.82;;
22107;SDS011;11220;48.812;9.128;2022-07-06T07:03:50;0.70;;;0.70;;
22107;SDS011;11220;48.812;9.128;2022-07-06T07:06:16;0.93;;;0.93;;
22107;SDS011;11220;48.812;9.128;2022-07-06T07:08:42;0.73;;;0.73;;
22107;SDS011;11220;48.812;9.128;2022-07-06T07:11:08;0.90;;;0.90;;
22107;SDS011;11220;48.812;9.128;2022-07-06T07:17:05;0.93;;;0.90;;
22107;SDS011;11220;48.812;9.128;2022-07-06T07:19:40;0.57;;;0.57;;
22107;SDS011;11220;48.812;9.128;2022-07-06T07:22:05;0.70;;;0.70;;
22107;SDS011;11220;48.812;9.128;2022-07-06T07:24:31;0.95;;;0.90;;
22107;SDS011;11220;48.812;9.128;2022-07-06T07:26:57;0.80;;;0.80;;
22107;SDS011;11220;48.812;9.128;2022-07-06T07:29:23;0.70;;;0.70;;
22107;SDS011;11220;48.812;9.128;2022-07-06T07:31:48;0.60;;;0.60;;
22107;SDS011;11220;48.812;9.128;2022-07-06T07:38:05;0.80;;;0.80;;
22107;SDS011;11220;48.812;9.128;2022-07-06T07:40:56;0.85;;;0.85;;
22107;SDS011;11220;48.812;9.128;2022-07-06T07:43:36;0.70;;;0.70;;
22107;SDS011;11220;48.812;9.128;2022-07-06T07:46:08;0.80;;;0.80;;
22107;SDS011;11220;48.812;9.128;2022-07-06T07:58:26;0.75;;;0.75;;
22107;SDS011;11220;48.812;9.128;2022-07-06T08:00:52;0.88;;;0.88;;
22107;SDS011;11220;48.812;9.128;2022-07-06T08:03:37;0.82;;;0.80;;
22107;SDS011;11220;48.812;9.128;2022-07-06T08:06:45;0.90;;;0.90;;
22107;SDS011;11220;48.812;9.128;2022-07-06T08:09:27;0.98;;;0.93;;
22107;SDS011;11220;48.812;9.128;2022-07-06T08:11:53;0.75;;;0.75;;
22107;SDS011;11220;48.812;9.128;2022-07-06T08:15:15;0.93;;;0.90;;
22107;SDS011;11220;48.812;9.128;2022-07-06T08:28:10;0.88;;;0.80;;
22107;SDS011;11220;48.812;9.128;2022-07-06T08:30:35;0.80;;;0.80;;
22107;SDS011;11220;48.812;9.128;2022-07-06T08:33:01;1.50;;;0.98;;
22107;SDS011;11220;48.812;9.128;2022-07-06T08:35:26;0.90;;;0.60;;
22107;SDS011;11220;48.812;9.128;2022-07-06T08:37:52;0.80;;;0.80;;
22107;SDS011;11220;48.812;9.128;2022-07-06T08:40:18;0.82;;;0.80;;
22107;SDS011;11220;48.812;9.128;2022-07-06T08:42:43;0.70;;;0.70;;
22107;SDS011;11220;48.812;9.128;2022-07-06T08:45:11;0.70;;;0.70;;
22107;SDS011;11220;48.812;9.128;2022-07-06T08:47:37;0.70;;;0.70;;
22107;SDS011;11220;48.812;9.128;2022-07-06T08:50:14;0.80;;;0.80;;
22107;SDS011;11220;48.812;9.128;2022-07-06T08:52:41;0.68;;;0.68;;
22107;SDS011;11220;48.812;9.128;2022-07-06T08:55:13;0.77;;;0.70;;
22107;SDS011;11220;48.812;9.128;2022-07-06T08:57:50;0.70;;;0.70;;
22107;SDS011;11220;48.812;9.128;2022-07-06T09:00:17;0.70;;;0.70;;
22107;SDS011;11220;48.812;9.128;2022-07-06T09:02:43;0.73;;;0.70;;
22107;SDS011;11220;48.812;9.128;2022-07-06T09:05:09;0.70;;;0.70;;
22107;SDS011;11220;48.812;9.128;2022-07-06T09:07:52;0.80;;;0.80;;
22107;SDS011;11220;48.812;9.128;2022-07-06T09:10:19;0.75;;;0.75;;
22107;SDS011;11220;48.812;9.128;2022-07-06T09:12:47;0.70;;;0.70;;
22107;SDS011;11220;48.812;9.128;2022-07-06T09:15:13;1.00;;;0.90;;
22107;SDS011;11220;48.812;9.128;2022-07-06T09:17:39;0.90;;;0.90;;
22107;SDS011;11220;48.812;9.128;2022-07-06T09:20:06;0.70;;;0.70;;
22107;SDS011;11220;48.812;9.128;2022-07-06T09:22:37;0.95;;;0.88;;
22107;SDS011;11220;48.812;9.128;2022-07-06T09:25:07;0.70;;;0.70;;
22107;SDS011;11220;48.812;9.128;2022-07-06T09:27:40;0.77;;;0.77;;
22107;SDS011;11220;48.812;9.128;2022-07-06T09:30:07;0.70;;;0.70;;
22107;SDS011;11220;48.812;9.128;2022-07-06T09:32:38;0.80;;;0.80;;
22107;SDS011;11220;48.812;9.128;2022-07-06T09:35:19;0.98;;;0.85;;
22107;SDS011;11220;48.812;9.128;2022-07-06T09:38:05;0.70;;;0.70;;
22107;SDS011;11220;48.812;9.128;2022-07-06T09:40:34;0.70;;;0.70;;
22107;SDS011;11220;48.812;9.128;2022-07-06T09:45:53;0.90;;;0.90;;
22107;SDS011;11220;48.812;9.128;2022-07-06T09:48:22;0.60;;;0.60;;
22107;SDS011;11220;48.812;9.128;2022-07-06T09:50:56;0.70;;;0.70;;
22107;SDS011;11220;48.812;9.128;2022-07-06T09:53:24;0.80;;;0.80;;
22107;SDS011;11220;48.812;9.128;2022-07-06T09:55:51;0.70;;;0.70;;
22107;SDS011;11220;48.812;9.128;2022-07-06T09:58:19;0.70;;;0.70;;
22107;SDS011;11220;48.812;9.128;2022-07-06T10:00:46;1.25;;;0.70;;
22107;SDS011;11220;48.812;9.128;2022-07-06T10:03:12;0.70;;;0.70;;
22107;SDS011;11220;48.812;9.128;2022-07-06T10:05:39;0.60;;;0.60;;
22107;SDS011;11220;48.812;9.128;2022-07-06T10:08:07;0.90;;;0.90;;
22107;SDS011;11220;48.812;9.128;2022-07-06T10:10:37;0.90;;;0.90;;
22107;SDS011;11220;48.812;9.128;2022-07-06T10:13:03;0.60;;;0.60;;
22107;SDS011;11220;48.812;9.128;2022-07-06T10:15:32;0.90;;;0.80;;
22107;SDS011;11220;48.812;9.128;2022-07-06T10:18:00;0.63;;;0.63;;
22107;SDS011;11220;48.812;9.128;2022-07-06T10:20:30;0.88;;;0.88;;
22107;SDS011;11220;48.812;9.128;2022-07-06T10:22:59;0.70;;;0.70;;
22107;SDS011;11220;48.812;9.128;2022-07-06T10:25:26;0.82;;;0.82;;
22107;SDS011;11220;48.812;9.128;2022-07-06T10:27:53;0.82;;;0.82;;
22107;SDS011;11220;48.812;9.128;2022-07-06T10:30:19;0.90;;;0.90;;
22107;SDS011;11220;48.812;9.128;2022-07-06T10:32:47;0.80;;;0.80;;
22107;SDS011;11220;48.812;9.128;2022-07-06T10:35:15;0.82;;;0.82;;
22107;SDS011;11220;48.812;9.128;2022-07-06T10:37:43;0.70;;;0.70;;
22107;SDS011;11220;48.812;9.128;2022-07-06T10:40:09;0.70;;;0.70;;
22107;SDS011;11220;48.812;9.128;2022-07-06T10:42:59;0.70;;;0.70;;
22107;SDS011;11220;48.812;9.128;2022-07-06T10:50:36;0.80;;;0.80;;
22107;SDS011;11220;48.812;9.128;2022-07-06T10:53:03;0.88;;;0.88;;
22107;SDS011;11220;48.812;9.128;2022-07-06T10:55:36;0.70;;;0.70;;
22107;SDS011;11220;48.812;9.128;2022-07-06T10:58:07;0.80;;;0.80;;
22107;SDS011;11220;48.812;9.128;2022-07-06T11:06:00;0.80;;;0.80;;
22107;SDS011;11220;48.812;9.128;2022-07-06T11:11:56;0.70;;;0.70;;
22107;SDS011;11220;48.812;9.128;2022-07-06T11:14:07;0.80;;;0.80;;
22107;SDS011;11220;48.812;9.128;2022-07-06T11:16:59;0.70;;;0.70;;
22107;SDS011;11220;48.812;9.128;2022-07-06T11:19:29;1.52;;;0.70;;
22107;SDS011;11220;48.812;9.128;2022-07-06T11:22:08;0.80;;;0.80;;
22107;SDS011;11220;48.812;9.128;2022-07-06T11:24:38;0.80;;;0.80;;
22107;SDS011;11220;48.812;9.128;2022-07-06T11:27:05;0.90;;;0.90;;
22107;SDS011;11220;48.812;9.128;2022-07-06T11:29:32;0.88;;;0.88;;
22107;SDS011;11220;48.812;9.128;2022-07-06T11:32:00;0.80;;;0.80;;
22107;SDS011;11220;48.812;9.128;2022-07-06T11:34:32;0.90;;;0.90;;
22107;SDS011;11220;48.812;9.128;2022-07-06T11:37:17;0.85;;;0.85;;
22107;SDS011;11220;48.812;9.128;2022-07-06T11:39:43;1.08;;;0.98;;
22107;SDS011;11220;48.812;9.128;2022-07-06T11:42:11;0.70;;;0.70;;
22107;SDS011;11220;48.812;9.128;2022-07-06T11:44:37;0.80;;;0.80;;
22107;SDS011;11220;48.812;9.128;2022-07-06T11:47:04;0.90;;;0.90;;
22107;SDS011;11220;48.812;9.128;2022-07-06T11:49:31;1.00;;;0.90;;
22107;SDS011;11220;48.812;9.128;2022-07-06T11:51:58;0.70;;;0.70;;
22107;SDS011;11220;48.812;9.128;2022-07-06T11:54:24;0.68;;;0.68;;
22107;SDS011;11220;48.812;9.128;2022-07-06T11:59:24;1.02;;;0.90;;
22107;SDS011;11220;48.812;9.128;2022-07-06T12:01:58;0.80;;;0.80;;
22107;SDS011;11220;48.812;9.128;2022-07-06T12:04:24;0.70;;;0.70;;
22107;SDS011;11220;48.812;9.128;2022-07-06T12:06:50;0.77;;;0.77;;
22107;SDS011;11220;48.812;9.128;2022-07-06T12:09:16;0.70;;;0.70;;
22107;SDS011;11220;48.812;9.128;2022-07-06T12:11:44;0.80;;;0.80;;
22107;SDS011;11220;48.812;9.128;2022-07-06T12:14:18;0.82;;;0.82;;
22107;SDS011;11220;48.812;9.128;2022-07-06T12:16:46;0.98;;;0.98;;
22107;SDS011;11220;48.812;9.128;2022-07-06T12:19:16;0.80;;;0.80;;
22107;SDS011;11220;48.812;9.128;2022-07-06T12:21:42;0.73;;;0.73;;
22107;SDS011;11220;48.812;9.128;2022-07-06T12:24:22;1.00;;;0.90;;
22107;SDS011;11220;48.812;9.128;2022-07-06T12:26:50;0.80;;;0.80;;
22107;SDS011;11220;48.812;9.128;2022-07-06T12:29:16;0.75;;;0.75;;
22107;SDS011;11220;48.812;9.128;2022-07-06T12:31:53;0.90;;;0.90;;
22107;SDS011;11220;48.812;9.128;2022-07-06T12:34:20;0.98;;;0.88;;
22107;SDS011;11220;48.812;9.128;2022-07-06T12:36:50;0.82;;;0.82;;
22107;SDS011;11220;48.812;9.128;2022-07-06T12:39:21;1.17;;;0.90;;
22107;SDS011;11220;48.812;9.128;2022-07-06T12:41:51;1.00;;;0.90;;
22107;SDS011;11220;48.812;9.128;2022-07-06T12:44:21;0.80;;;0.80;;
22107;SDS011;11220;48.812;9.128;2022-07-06T12:46:48;0.65;;;0.65;;
22107;SDS011;11220;48.812;9.128;2022-07-06T12:49:28;1.00;;;1.00;;
22107;SDS011;11220;48.812;9.128;2022-07-06T12:52:28;1.15;;;1.00;;
22107;SDS011;11220;48.812;9.128;2022-07-06T12:54:49;1.27;;;1.20;;
22107;SDS011;11220;48.812;9.128;2022-07-06T12:57:19;0.90;;;0.90;;
22107;SDS011;11220;48.812;9.128;2022-07-06T12:59:54;1.10;;;1.00;;
22107;SDS011;11220;48.812;9.128;2022-07-06T13:02:22;0.98;;;0.90;;
22107;SDS011;11220;48.812;9.128;2022-07-06T13:04:57;1.10;;;1.00;;
22107;SDS011;11220;48.812;9.128;2022-07-06T13:07:27;0.90;;;0.90;;
22107;SDS011;11220;48.812;9.128;2022-07-06T13:09:54;0.90;;;0.90;;
22107;SDS011;11220;48.812;9.128;2022-07-06T13:12:20;0.80;;;0.80;;
22107;SDS011;11220;48.812;9.128;2022-07-06T13:14:46;0.80;;;0.80;;
22107;SDS011;11220;48.812;9.128;2022-07-06T13:17:12;1.10;;;1.10;;
22107;SDS011;11220;48.812;9.128;2022-07-06T13:19:38;0.75;;;0.75;;
22107;SDS011;11220;48.812;9.128;2022-07-06T13:22:04;0.90;;;0.90;;
22107;SDS011;11220;48.812;9.128;2022-07-06T13:24:29;0.98;;;0.98;;
22107;SDS011;11220;48.812;9.128;2022-07-06T13:26:55;1.40;;;1.30;;
22107;SDS011;11220;48.812;9.128;2022-07-06T13:29:22;1.15;;;1.05;;
22107;SDS011;11220;48.812;9.128;2022-07-06T13:31:47;1.15;;;0.93;;
22107;SDS011;11220;48.812;9.128;2022-07-06T13:34:13;0.98;;;0.93;;
22107;SDS011;11220;48.812;9.128;2022-07-06T13:36:38;0.90;;;0.90;;
22107;SDS011;11220;48.812;9.128;2022-07-06T13:39:04;1.20;;;1.10;;
22107;SDS011;11220;48.812;9.128;2022-07-06T13:41:32;0.90;;;0.90;;
22107;SDS011;11220;48.812;9.128;2022-07-06T13:43:58;0.95;;;0.90;;
22107;SDS011;11220;48.812;9.128;2022-07-06T13:46:25;1.00;;;1.00;;
22107;SDS011;11220;48.812;9.128;2022-07-06T13:48:52;1.08;;;1.00;;
22107;SDS011;11220;48.812;9.128;2022-07-06T13:51:18;1.10;;;1.00;;
22107;SDS011;11220;48.812;9.128;2022-07-06T13:53:43;1.00;;;0.88;;
22107;SDS011;11220;48.812;9.128;2022-07-06T13:56:10;0.98;;;0.98;;
22107;SDS011;11220;48.812;9.128;2022-07-06T13:58:36;0.80;;;0.80;;
22107;SDS011;11220;48.812;9.128;2022-07-06T14:01:01;0.90;;;0.90;;
22107;SDS011;11220;48.812;9.128;2022-07-06T14:03:28;0.80;;;0.80;;
22107;SDS011;11220;48.812;9.128;2022-07-06T14:05:55;0.88;;;0.88;;
22107;SDS011;11220;48.812;9.128;2022-07-06T14:08:21;1.20;;;1.20;;
22107;SDS011;11220;48.812;9.128;2022-07-06T14:10:47;0.80;;;0.80;;
22107;SDS011;11220;48.812;9.128;2022-07-06T14:13:13;0.82;;;0.82;;
22107;SDS011;11220;48.812;9.128;2022-07-06T14:15:38;1.23;;;1.10;;
22107;SDS011;11220;48.812;9.128;2022-07-06T14:18:04;1.20;;;1.10;;
22107;SDS011;11220;48.812;9.128;2022-07-06T14:20:29;1.00;;;1.00;;
22107;SDS011;11220;48.812;9.128;2022-07-06T14:22:55;0.75;;;0.75;;
22107;SDS011;11220;48.812;9.128;2022-07-06T14:25:20;0.90;;;0.90;;
22107;SDS011;11220;48.812;9.128;2022-07-06T14:27:46;1.00;;;1.00;;
22107;SDS011;11220;48.812;9.128;2022-07-06T14:30:12;1.02;;;0.93;;
22107;SDS011;11220;48.812;9.128;2022-07-06T14:32:37;1.20;;;1.00;;
22107;SDS011;11220;48.812;9.128;2022-07-06T14:35:03;1.20;;;1.10;;
22107;SDS011;11220;48.812;9.128;2022-07-06T14:37:29;1.25;;;1.10;;
22107;SDS011;11220;48.812;9.128;2022-07-06T14:39:55;0.90;;;0.90;;
22107;SDS011;11220;48.812;9.128;2022-07-06T14:42:20;0.93;;;0.93;;
22107;SDS011;11220;48.812;9.128;2022-07-06T14:44:46;1.10;;;1.00;;
22107;SDS011;11220;48.812;9.128;2022-07-06T14:47:12;0.93;;;0.93;;
22107;SDS011;11220;48.812;9.128;2022-07-06T14:49:37;1.00;;;0.95;;
22107;SDS011;11220;48.812;9.128;2022-07-06T14:52:03;1.02;;;0.93;;
22107;SDS011;11220;48.812;9.128;2022-07-06T14:54:29;0.98;;;0.98;;
22107;SDS011;11220;48.812;9.128;2022-07-06T14:56:54;1.20;;;0.88;;
22107;SDS011;11220;48.812;9.128;2022-07-06T14:59:20;0.82;;;0.82;;
22107;SDS011;11220;48.812;9.128;2022-07-06T15:01:45;1.00;;;1.00;;
22107;SDS011;11220;48.812;9.128;2022-07-06T15:04:11;1.13;;;0.90;;
22107;SDS011;11220;48.812;9.128;2022-07-06T15:06:36;0.82;;;0.75;;
22107;SDS011;11220;48.812;9.128;2022-07-06T15:09:02;0.85;;;0.85;;
22107;SDS011;11220;48.812;9.128;2022-07-06T15:11:47;0.98;;;0.95;;
22107;SDS011;11220;48.812;9.128;2022-07-06T15:14:27;1.05;;;0.95;;
22107;SDS011;11220;48.812;9.128;2022-07-06T15:16:53;0.88;;;0.88;;
22107;SDS011;11220;48.812;9.128;2022-07-06T15:19:19;1.00;;;0.93;;
22107;SDS011;11220;48.812;9.128;2022-07-06T15:21:45;0.90;;;0.90;;
22107;SDS011;11220;48.812;9.128;2022-07-06T15:24:11;0.90;;;0.90;;
22107;SDS011;11220;48.812;9.128;2022-07-06T15:26:36;1.08;;;0.90;;
22107;SDS011;11220;48.812;9.128;2022-07-06T15:29:02;1.23;;;1.13;;
22107;SDS011;11220;48.812;9.128;2022-07-06T15:31:28;1.00;;;1.00;;
22107;SDS011;11220;48.812;9.128;2022-07-06T15:33:53;1.00;;;1.00;;
22107;SDS011;11220;48.812;9.128;2022-07-06T15:36:19;0.93;;;0.93;;
22107;SDS011;11220;48.812;9.128;2022-07-06T15:38:45;1.08;;;1.08;;
22107;SDS011;11220;48.812;9.128;2022-07-06T15:41:10;0.90;;;0.90;;
22107;SDS011;11220;48.812;9.128;2022-07-06T15:43:36;0.73;;;0.73;;
22107;SDS011;11220;48.812;9.128;2022-07-06T15:46:03;0.80;;;0.80;;
22107;SDS011;11220;48.812;9.128;2022-07-06T15:48:29;0.80;;;0.80;;
22107;SDS011;11220;48.812;9.128;2022-07-06T15:50:56;0.80;;;0.73;;
22107;SDS011;11220;48.812;9.128;2022-07-06T15:53:23;0.93;;;0.90;;
22107;SDS011;11220;48.812;9.128;2022-07-06T15:55:49;0.95;;;0.85;;
22107;SDS011;11220;48.812;9.128;2022-07-06T15:58:15;0.70;;;0.70;;